Time;durP1;ratioP1;P1;durP2;ratioP2;P2;SDS_P1;SDS_P2;PMS_P1;PMS_P2;Temp;Humidity;BMP_temperature;BMP_pressure;BME280_temperature;BME280_humidity;BME280_pressure;Samples;Min_cycle;Max_cycle;Signal;HPM_P1;HPM_P2
2021/09/03 00:00:56;;;;;;;;;;;13.00;99.90;;;;;;5060612;28;20303;-91
2021/09/03 00:03:22;;;;;;;;;;;13.00;99.90;;;;;;5074691;28;20370;-91
2021/09/03 00:05:48;;;;;;;;;;;13.00;99.90;;;;;;5072317;28;19923;-89
2021/09/03 00:08:13;;;;;;;;;;;12.90;99.90;;;;;;5071019;27;20016;-91
2021/09/03 00:10:39;;;;;;;;;;;13.00;99.90;;;;;;5073406;28;19930;-90
2021/09/03 00:13:04;;;;;;;;;;;13.00;99.90;;;;;;5061752;27;20390;-91
2021/09/03 00:15:30;;;;;;;;;;;12.90;99.90;;;;;;5056880;28;20009;-91
2021/09/03 00:17:55;;;;;;;;;;;12.90;99.90;;;;;;5088137;27;19923;-91
2021/09/03 00:20:21;;;;;;;;;;;12.90;99.90;;;;;;5073500;28;19951;-91
2021/09/03 00:22:47;;;;;;;;;;;12.90;99.90;;;;;;5044525;28;19924;-90
2021/09/03 00:25:12;;;;;;;;;;;12.90;99.90;;;;;;5083868;28;19967;-91
2021/09/03 00:27:38;;;;;;;;;;;12.90;99.90;;;;;;5086267;27;19919;-90
2021/09/03 00:30:04;;;;;;;;;;;12.90;99.90;;;;;;5097786;27;20366;-90
2021/09/03 00:32:30;;;;;;;;;;;12.90;99.90;;;;;;5067354;28;19962;-90
2021/09/03 00:34:56;;;;;;;;;;;12.90;99.90;;;;;;5073674;28;19963;-91
2021/09/03 00:37:21;;;;;;;;;;;12.90;99.90;;;;;;5077601;27;19927;-91
2021/09/03 00:39:47;;;;;;;;;;;12.90;99.90;;;;;;5088433;28;20386;-91
2021/09/03 00:42:14;;;;;;;;;;;12.80;99.90;;;;;;5090005;28;19974;-91
2021/09/03 00:44:40;;;;;;;;;;;12.80;99.90;;;;;;5066742;28;19930;-90
2021/09/03 00:47:05;;;;;;;;;;;12.80;99.90;;;;;;5060602;27;20018;-91
2021/09/03 00:49:31;;;;;;;;;;;12.80;99.90;;;;;;5090812;28;19920;-91
2021/09/03 00:51:57;;;;;;;;;;;12.80;99.90;;;;;;5076839;27;19957;-90
2021/09/03 00:54:23;;;;;;;;;;;12.80;99.90;;;;;;5068913;27;19935;-90
2021/09/03 00:56:48;;;;;;;;;;;12.80;99.90;;;;;;5095249;27;19924;-91
2021/09/03 00:59:14;;;;;;;;;;;12.70;99.90;;;;;;5074854;28;19935;-90
2021/09/03 01:01:39;;;;;;;;;;;12.70;99.90;;;;;;5058865;28;19928;-91
2021/09/03 01:04:05;;;;;;;;;;;12.70;99.90;;;;;;5097893;27;19919;-92
2021/09/03 01:06:31;;;;;;;;;;;12.70;99.90;;;;;;5056894;27;19971;-90
2021/09/03 01:08:56;;;;;;;;;;;12.70;99.90;;;;;;5075789;28;19920;-90
2021/09/03 01:11:22;;;;;;;;;;;12.70;99.90;;;;;;5086735;27;19923;-90
2021/09/03 01:13:48;;;;;;;;;;;12.70;99.90;;;;;;5069919;28;20391;-91
2021/09/03 01:16:14;;;;;;;;;;;12.70;99.90;;;;;;5056249;28;19935;-90
2021/09/03 01:18:39;;;;;;;;;;;12.60;99.90;;;;;;5049934;27;19929;-91
2021/09/03 01:21:05;;;;;;;;;;;12.60;99.90;;;;;;5084280;27;19988;-90
2021/09/03 01:23:30;;;;;;;;;;;12.60;99.90;;;;;;5068841;28;19920;-91
2021/09/03 01:26:00;;;;;;;;;;;12.60;99.90;;;;;;5056440;28;19931;-90
2021/09/03 01:28:26;;;;;;;;;;;12.50;99.90;;;;;;5089236;27;19938;-90
2021/09/03 01:30:51;;;;;;;;;;;12.50;99.90;;;;;;5081060;28;19920;-91
2021/09/03 01:33:17;;;;;;;;;;;12.50;99.90;;;;;;5067278;28;19927;-91
2021/09/03 01:35:42;;;;;;;;;;;12.50;99.90;;;;;;5075699;28;19928;-91
2021/09/03 01:38:08;;;;;;;;;;;12.40;99.90;;;;;;5077826;27;19991;-90
2021/09/03 01:40:34;;;;;;;;;;;12.40;99.90;;;;;;5080576;28;19919;-90
2021/09/03 01:42:59;;;;;;;;;;;12.40;99.90;;;;;;5100419;27;19927;-91
2021/09/03 01:45:25;;;;;;;;;;;12.40;99.90;;;;;;5059843;28;20374;-89
2021/09/03 01:47:50;;;;;;;;;;;12.40;99.90;;;;;;5074153;28;19985;-91
2021/09/03 01:50:16;;;;;;;;;;;12.40;99.90;;;;;;5076725;28;19930;-91
2021/09/03 01:52:41;;;;;;;;;;;12.30;99.90;;;;;;5071187;28;19923;-91
2021/09/03 01:55:07;;;;;;;;;;;12.40;99.90;;;;;;5077292;28;19923;-90
2021/09/03 01:57:33;;;;;;;;;;;12.40;99.90;;;;;;5081288;28;19987;-91
2021/09/03 01:59:58;;;;;;;;;;;12.40;99.90;;;;;;5069238;28;19945;-90
2021/09/03 02:02:24;;;;;;;;;;;12.40;99.90;;;;;;5065901;28;20408;-91
2021/09/03 02:04:49;;;;;;;;;;;12.40;99.90;;;;;;5060021;28;19950;-91
2021/09/03 02:07:15;;;;;;;;;;;12.30;99.90;;;;;;5082511;28;19972;-91
2021/09/03 02:09:41;;;;;;;;;;;12.30;99.90;;;;;;5072881;28;19920;-91
2021/09/03 02:12:06;;;;;;;;;;;12.30;99.90;;;;;;5062120;28;19920;-91
2021/09/03 02:14:32;;;;;;;;;;;12.30;99.90;;;;;;5078937;28;19932;-91
2021/09/03 02:16:57;;;;;;;;;;;12.30;99.90;;;;;;5068465;28;20006;-91
2021/09/03 02:19:23;;;;;;;;;;;12.20;99.90;;;;;;5071945;27;20018;-90
2021/09/03 02:21:49;;;;;;;;;;;12.20;99.90;;;;;;5090226;28;19945;-90
2021/09/03 02:24:14;;;;;;;;;;;12.20;99.90;;;;;;5076027;28;19931;-91
2021/09/03 02:26:40;;;;;;;;;;;12.20;99.90;;;;;;5062333;28;19931;-91
2021/09/03 02:29:05;;;;;;;;;;;12.10;99.90;;;;;;5069220;28;20025;-91
2021/09/03 02:31:31;;;;;;;;;;;12.10;99.90;;;;;;5079484;28;19926;-91
2021/09/03 02:33:56;;;;;;;;;;;12.10;99.90;;;;;;5063321;27;19924;-91
2021/09/03 02:36:22;;;;;;;;;;;12.10;99.90;;;;;;5059254;28;20338;-90
2021/09/03 02:38:47;;;;;;;;;;;12.20;99.90;;;;;;5074956;27;19923;-90
2021/09/03 02:41:13;;;;;;;;;;;12.20;99.90;;;;;;5077852;28;19924;-90
2021/09/03 02:43:39;;;;;;;;;;;12.10;99.90;;;;;;5062269;28;19924;-91
2021/09/03 02:46:04;;;;;;;;;;;12.10;99.90;;;;;;5086423;27;19923;-91
2021/09/03 02:48:30;;;;;;;;;;;12.10;99.90;;;;;;5078487;28;20022;-91
2021/09/03 02:50:55;;;;;;;;;;;12.10;99.90;;;;;;5094979;28;19932;-91
2021/09/03 02:53:21;;;;;;;;;;;12.10;99.90;;;;;;5066298;28;20377;-91
2021/09/03 02:55:47;;;;;;;;;;;12.10;99.90;;;;;;5067213;28;20014;-91
2021/09/03 02:58:12;;;;;;;;;;;12.10;99.90;;;;;;5055341;27;19923;-91
2021/09/03 03:00:38;;;;;;;;;;;12.00;99.90;;;;;;5103579;27;19915;-91
2021/09/03 03:03:03;;;;;;;;;;;12.00;99.90;;;;;;5102054;27;19923;-91
2021/09/03 03:05:29;;;;;;;;;;;12.00;99.90;;;;;;5078031;28;19928;-90
2021/09/03 03:07:55;;;;;;;;;;;12.00;99.90;;;;;;5043072;28;19931;-90
2021/09/03 03:10:20;;;;;;;;;;;12.00;99.90;;;;;;5079235;28;19936;-91
2021/09/03 03:12:49;;;;;;;;;;;11.90;99.90;;;;;;5056539;28;19938;-90
2021/09/03 03:15:14;;;;;;;;;;;11.90;99.90;;;;;;5068770;27;19924;-90
2021/09/03 03:17:40;;;;;;;;;;;11.90;99.90;;;;;;5079047;28;20010;-91
2021/09/03 03:20:06;;;;;;;;;;;11.90;99.90;;;;;;5072120;28;20401;-91
2021/09/03 03:22:32;;;;;;;;;;;11.90;99.90;;;;;;5067025;28;19998;-91
2021/09/03 03:24:57;;;;;;;;;;;11.90;99.90;;;;;;5080068;27;19924;-91
2021/09/03 03:27:23;;;;;;;;;;;11.90;99.90;;;;;;5098108;27;19930;-91
2021/09/03 03:29:48;;;;;;;;;;;11.90;99.90;;;;;;5087103;27;20029;-90
2021/09/03 03:32:14;;;;;;;;;;;11.90;99.90;;;;;;5057208;28;19920;-91
2021/09/03 03:34:39;;;;;;;;;;;11.90;99.90;;;;;;5076851;28;20046;-91
2021/09/03 03:37:05;;;;;;;;;;;11.90;99.90;;;;;;5069093;28;19930;-90
2021/09/03 03:39:31;;;;;;;;;;;11.90;99.90;;;;;;5057735;28;19931;-91
2021/09/03 03:41:56;;;;;;;;;;;11.80;99.90;;;;;;5073256;28;20350;-91
2021/09/03 03:44:22;;;;;;;;;;;11.90;99.90;;;;;;5060550;27;19923;-90
2021/09/03 03:46:47;;;;;;;;;;;11.80;99.90;;;;;;5067158;28;20366;-90
2021/09/03 03:49:13;;;;;;;;;;;11.80;99.90;;;;;;5043409;28;20289;-91
2021/09/03 03:51:39;;;;;;;;;;;11.80;99.90;;;;;;5064087;28;19924;-90
2021/09/03 03:54:05;;;;;;;;;;;11.80;99.90;;;;;;5073119;28;19932;-91
2021/09/03 03:56:30;;;;;;;;;;;11.80;99.90;;;;;;5053707;28;19997;-90
2021/09/03 03:58:56;;;;;;;;;;;11.80;99.90;;;;;;5060017;28;20279;-90
2021/09/03 04:01:21;;;;;;;;;;;11.80;99.90;;;;;;5067591;28;19920;-91
2021/09/03 04:03:47;;;;;;;;;;;11.80;99.90;;;;;;5056624;28;19924;-90
2021/09/03 04:06:13;;;;;;;;;;;11.80;99.90;;;;;;5059510;28;19953;-90
2021/09/03 04:08:38;;;;;;;;;;;11.80;99.90;;;;;;5093927;28;20038;-91
2021/09/03 04:11:04;;;;;;;;;;;11.70;99.90;;;;;;5061257;28;19924;-91
2021/09/03 04:13:29;;;;;;;;;;;11.70;99.90;;;;;;5073906;28;20034;-90
2021/09/03 04:15:55;;;;;;;;;;;11.70;99.90;;;;;;5089932;27;19952;-90
2021/09/03 04:18:21;;;;;;;;;;;11.70;99.90;;;;;;5093927;28;19919;-89
2021/09/03 04:20:47;;;;;;;;;;;11.60;99.90;;;;;;5107442;27;19985;-91
2021/09/03 04:23:12;;;;;;;;;;;11.60;99.90;;;;;;5093015;28;20383;-91
2021/09/03 04:25:38;;;;;;;;;;;11.60;99.90;;;;;;5050642;28;20007;-89
2021/09/03 04:28:03;;;;;;;;;;;11.60;99.90;;;;;;5076130;28;19957;-90
2021/09/03 04:30:29;;;;;;;;;;;11.60;99.90;;;;;;5060190;28;19957;-90
2021/09/03 04:32:55;;;;;;;;;;;11.60;99.90;;;;;;5060032;28;19928;-91
2021/09/03 04:35:21;;;;;;;;;;;11.60;99.90;;;;;;5083579;27;20460;-90
2021/09/03 04:37:47;;;;;;;;;;;11.60;99.90;;;;;;5094842;28;19966;-91
2021/09/03 04:40:13;;;;;;;;;;;11.60;99.90;;;;;;5076861;28;19966;-91
2021/09/03 04:42:39;;;;;;;;;;;11.60;99.90;;;;;;5045001;28;19927;-91
2021/09/03 04:45:05;;;;;;;;;;;11.60;99.90;;;;;;5080354;27;19919;-91
2021/09/03 04:47:30;;;;;;;;;;;11.50;99.90;;;;;;5069462;28;19927;-91
2021/09/03 04:49:56;;;;;;;;;;;11.50;99.90;;;;;;5048573;28;19927;-90
2021/09/03 04:52:22;;;;;;;;;;;11.50;99.90;;;;;;5071879;28;20382;-90
2021/09/03 04:54:47;;;;;;;;;;;11.50;99.90;;;;;;5047290;28;20738;-91
2021/09/03 04:57:13;;;;;;;;;;;11.50;99.90;;;;;;5068355;27;19923;-91
2021/09/03 04:59:39;;;;;;;;;;;11.50;99.90;;;;;;5104587;28;19926;-91
2021/09/03 05:02:04;;;;;;;;;;;11.50;99.90;;;;;;5052315;27;20283;-91
2021/09/03 05:04:30;;;;;;;;;;;11.50;99.90;;;;;;5071746;28;19930;-90
2021/09/03 05:06:55;;;;;;;;;;;11.40;99.90;;;;;;5057462;28;19939;-91
2021/09/03 05:09:21;;;;;;;;;;;11.40;99.90;;;;;;5092807;28;20018;-90
2021/09/03 05:11:46;;;;;;;;;;;11.40;99.90;;;;;;5076767;28;19926;-91
2021/09/03 05:14:12;;;;;;;;;;;11.50;99.90;;;;;;5078542;28;19928;-91
2021/09/03 05:16:37;;;;;;;;;;;11.50;99.90;;;;;;5089389;28;19963;-90
2021/09/03 05:19:03;;;;;;;;;;;11.50;99.90;;;;;;5072125;28;19924;-91
2021/09/03 05:21:29;;;;;;;;;;;11.50;99.90;;;;;;5072299;28;19926;-91
2021/09/03 05:23:54;;;;;;;;;;;11.50;99.90;;;;;;5056448;28;19927;-90
2021/09/03 05:26:20;;;;;;;;;;;11.50;99.90;;;;;;5059486;28;19975;-91
2021/09/03 05:28:45;;;;;;;;;;;11.50;99.90;;;;;;5057267;28;19924;-91
2021/09/03 05:31:11;;;;;;;;;;;11.50;99.90;;;;;;5081463;27;19969;-91
2021/09/03 05:33:37;;;;;;;;;;;11.50;99.90;;;;;;5105240;27;19923;-91
2021/09/03 05:36:02;;;;;;;;;;;11.50;99.90;;;;;;5045627;28;19924;-91
2021/09/03 05:38:28;;;;;;;;;;;11.60;99.90;;;;;;5081102;28;20014;-91
2021/09/03 05:40:54;;;;;;;;;;;11.70;99.90;;;;;;5055335;28;20337;-91
2021/09/03 05:43:20;;;;;;;;;;;11.80;99.90;;;;;;5068414;27;19958;-90
2021/09/03 05:45:46;;;;;;;;;;;11.90;99.90;;;;;;5058574;28;19923;-90
2021/09/03 05:48:11;;;;;;;;;;;11.90;99.90;;;;;;5082462;28;20400;-91
2021/09/03 05:50:37;;;;;;;;;;;12.00;99.90;;;;;;5074872;28;19972;-91
2021/09/03 05:53:03;;;;;;;;;;;12.10;99.90;;;;;;5061670;28;20377;-90
2021/09/03 05:55:29;;;;;;;;;;;12.10;99.90;;;;;;5074555;28;19924;-90
2021/09/03 05:57:54;;;;;;;;;;;12.20;99.90;;;;;;5074934;28;19984;-91
2021/09/03 06:00:20;;;;;;;;;;;12.20;99.90;;;;;;5053203;28;19968;-90
2021/09/03 06:02:46;;;;;;;;;;;12.20;99.90;;;;;;5081646;28;20047;-89
2021/09/03 06:05:11;;;;;;;;;;;12.30;99.90;;;;;;5049792;28;19924;-91
2021/09/03 06:07:37;;;;;;;;;;;12.40;99.90;;;;;;5085609;28;20062;-91
2021/09/03 06:10:03;;;;;;;;;;;12.50;99.90;;;;;;5051104;28;19924;-91
2021/09/03 06:12:29;;;;;;;;;;;12.60;99.90;;;;;;5059940;28;19920;-91
2021/09/03 06:14:54;;;;;;;;;;;12.60;99.90;;;;;;5091330;28;19932;-91
2021/09/03 06:17:20;;;;;;;;;;;12.70;99.90;;;;;;5068707;28;19920;-91
2021/09/03 06:19:46;;;;;;;;;;;12.80;99.90;;;;;;5037526;28;19931;-90
2021/09/03 06:22:28;;;;;;;;;;;12.90;99.90;;;;;;5056906;28;19924;-90
2021/09/03 06:24:53;;;;;;;;;;;13.00;99.90;;;;;;5061251;28;20014;-90
2021/09/03 06:27:19;;;;;;;;;;;13.10;99.90;;;;;;5062395;28;20787;-90
2021/09/03 06:30:00;;;;;;;;;;;13.20;99.90;;;;;;5047661;28;19924;-90
2021/09/03 06:32:27;;;;;;;;;;;13.30;99.90;;;;;;5044871;28;19943;-89
2021/09/03 06:34:53;;;;;;;;;;;13.30;99.90;;;;;;5044368;28;19958;-89
2021/09/03 06:37:19;;;;;;;;;;;13.40;99.90;;;;;;5052664;28;20326;-91
2021/09/03 06:39:45;;;;;;;;;;;13.40;99.90;;;;;;5041300;28;19974;-87
2021/09/03 06:42:11;;;;;;;;;;;13.50;99.90;;;;;;5048557;28;19970;-88
2021/09/03 06:44:37;;;;;;;;;;;13.60;99.90;;;;;;5057459;28;19920;-88
2021/09/03 06:47:03;;;;;;;;;;;13.60;99.90;;;;;;5045719;28;19959;-86
2021/09/03 06:49:29;;;;;;;;;;;13.60;99.90;;;;;;5051663;28;19924;-90
2021/09/03 06:51:55;;;;;;;;;;;13.70;99.90;;;;;;5048788;28;20459;-89
2021/09/03 06:54:21;;;;;;;;;;;13.80;99.90;;;;;;5034643;28;19951;-90
2021/09/03 06:56:47;;;;;;;;;;;13.90;99.90;;;;;;5052267;28;19924;-90
2021/09/03 06:59:12;;;;;;;;;;;13.90;99.90;;;;;;5056559;28;19963;-95
2021/09/03 07:01:38;;;;;;;;;;;14.00;99.90;;;;;;5023782;28;19925;-92
2021/09/03 07:04:04;;;;;;;;;;;14.10;99.90;;;;;;5025308;28;20361;-95
2021/09/03 07:06:29;;;;;;;;;;;14.20;99.90;;;;;;5049435;28;20314;-93
2021/09/03 07:08:56;;;;;;;;;;;14.20;99.90;;;;;;5056736;27;20013;-91
2021/09/03 07:11:22;;;;;;;;;;;14.30;99.90;;;;;;5079047;28;19924;-94
2021/09/03 07:13:47;;;;;;;;;;;14.40;99.90;;;;;;5061585;27;19935;-92
2021/09/03 07:16:13;;;;;;;;;;;14.40;99.90;;;;;;5078281;28;19931;-94
2021/09/03 07:18:39;;;;;;;;;;;14.50;99.90;;;;;;5073269;28;19927;-91
2021/09/03 07:21:04;;;;;;;;;;;14.60;99.90;;;;;;5057369;28;19979;-92
2021/09/03 07:23:30;;;;;;;;;;;14.60;99.90;;;;;;5056398;27;19920;-92
2021/09/03 07:25:56;;;;;;;;;;;14.70;99.90;;;;;;5085635;28;20010;-92
2021/09/03 07:28:21;;;;;;;;;;;14.80;99.90;;;;;;5062916;28;19919;-92
2021/09/03 07:30:47;;;;;;;;;;;14.90;99.90;;;;;;5064052;27;19923;-92
2021/09/03 07:33:12;;;;;;;;;;;14.90;99.90;;;;;;5093636;27;19926;-92
2021/09/03 07:35:38;;;;;;;;;;;15.00;99.90;;;;;;5079102;28;20644;-92
2021/09/03 07:38:03;;;;;;;;;;;15.00;99.90;;;;;;5083214;27;19919;-92
2021/09/03 07:40:29;;;;;;;;;;;15.10;99.90;;;;;;5066123;27;19935;-92
2021/09/03 07:42:55;;;;;;;;;;;15.20;99.90;;;;;;5062066;27;19920;-92
2021/09/03 07:45:21;;;;;;;;;;;15.20;99.90;;;;;;5074470;28;19933;-91
2021/09/03 07:47:47;;;;;;;;;;;15.30;99.90;;;;;;5059127;27;19932;-91
2021/09/03 07:50:16;;;;;;;;;;;15.30;99.90;;;;;;5071435;27;19954;-92
2021/09/03 07:52:41;;;;;;;;;;;15.40;99.90;;;;;;5082955;27;20008;-92
2021/09/03 07:55:07;;;;;;;;;;;15.40;99.90;;;;;;5069236;27;20785;-92
2021/09/03 07:57:33;;;;;;;;;;;15.50;99.90;;;;;;5081990;28;19974;-92
2021/09/03 07:59:58;;;;;;;;;;;15.50;99.90;;;;;;5047255;28;19926;-92
2021/09/03 08:02:24;;;;;;;;;;;15.50;99.90;;;;;;5077780;28;19927;-93
2021/09/03 08:04:52;;;;;;;;;;;15.60;99.90;;;;;;5050998;28;20010;-92
2021/09/03 08:07:17;;;;;;;;;;;15.70;99.90;;;;;;5084172;27;19968;-92
2021/09/03 08:09:43;;;;;;;;;;;15.70;99.90;;;;;;5056086;28;19924;-92
2021/09/03 08:12:08;;;;;;;;;;;15.80;99.90;;;;;;5058442;28;19926;-93
2021/09/03 08:14:35;;;;;;;;;;;15.80;99.90;;;;;;5074324;28;19980;-95
2021/09/03 08:17:01;;;;;;;;;;;15.80;99.90;;;;;;5059516;28;19921;-92
2021/09/03 08:19:26;;;;;;;;;;;15.90;99.90;;;;;;5065418;28;20003;-91
2021/09/03 08:21:52;;;;;;;;;;;15.90;99.90;;;;;;5053656;28;20007;-92
2021/09/03 08:24:18;;;;;;;;;;;15.90;99.90;;;;;;5064059;28;19923;-90
2021/09/03 08:26:44;;;;;;;;;;;16.00;99.90;;;;;;5076296;28;19924;-92
2021/09/03 08:29:09;;;;;;;;;;;16.00;99.90;;;;;;5059808;28;19985;-92
2021/09/03 08:31:35;;;;;;;;;;;16.00;99.90;;;;;;5060724;28;19928;-93
2021/09/03 08:34:01;;;;;;;;;;;16.10;99.90;;;;;;5074403;28;19928;-93
2021/09/03 08:36:26;;;;;;;;;;;16.10;99.90;;;;;;5055869;28;20130;-91
2021/09/03 08:38:52;;;;;;;;;;;16.20;99.90;;;;;;5072729;28;19924;-91
2021/09/03 08:41:18;;;;;;;;;;;16.20;99.90;;;;;;5087599;27;19931;-89
2021/09/03 08:43:44;;;;;;;;;;;16.20;99.90;;;;;;5095476;27;20310;-89
2021/09/03 08:46:11;;;;;;;;;;;16.30;99.90;;;;;;5058235;28;19923;-89
2021/09/03 08:48:38;;;;;;;;;;;16.30;99.90;;;;;;5073384;28;19930;-89
2021/09/03 08:51:04;;;;;;;;;;;16.30;99.90;;;;;;5074174;28;19920;-88
2021/09/03 08:53:30;;;;;;;;;;;16.30;99.90;;;;;;5058190;28;19935;-88
2021/09/03 08:55:55;;;;;;;;;;;16.40;99.90;;;;;;5090889;28;19924;-89
2021/09/03 08:58:21;;;;;;;;;;;16.40;99.90;;;;;;5073809;28;19923;-89
2021/09/03 09:01:05;;;;;;;;;;;16.40;99.90;;;;;;5074581;28;19927;-89
2021/09/03 09:03:38;;;;;;;;;;;16.40;99.90;;;;;;5092455;28;19924;-88
2021/09/03 09:06:04;;;;;;;;;;;16.40;99.90;;;;;;5090562;28;19934;-89
2021/09/03 09:08:31;;;;;;;;;;;16.40;99.90;;;;;;5074232;28;19927;-89
2021/09/03 09:10:58;;;;;;;;;;;16.40;99.90;;;;;;5075235;28;20005;-89
2021/09/03 09:13:25;;;;;;;;;;;16.40;99.90;;;;;;5090630;28;19927;-89
2021/09/03 09:16:08;;;;;;;;;;;16.50;99.90;;;;;;5073682;27;19920;-88
2021/09/03 09:18:36;;;;;;;;;;;16.50;99.90;;;;;;5094136;27;19923;-89
2021/09/03 09:21:21;;;;;;;;;;;16.50;99.90;;;;;;5093334;27;20005;-89
2021/09/03 09:23:48;;;;;;;;;;;16.60;99.90;;;;;;5081150;27;20430;-89
2021/09/03 09:26:16;;;;;;;;;;;16.50;99.90;;;;;;5071353;28;20367;-89
2021/09/03 09:28:42;;;;;;;;;;;16.60;99.90;;;;;;5093202;27;19919;-89
2021/09/03 09:31:08;;;;;;;;;;;16.60;99.90;;;;;;5074020;27;19919;-89
2021/09/03 09:33:34;;;;;;;;;;;16.60;99.90;;;;;;5052482;28;19928;-88
2021/09/03 09:36:01;;;;;;;;;;;16.60;99.90;;;;;;5072794;28;19920;-89
2021/09/03 09:38:28;;;;;;;;;;;16.60;99.90;;;;;;5070625;28;20020;-88
2021/09/03 09:40:55;;;;;;;;;;;16.60;99.90;;;;;;5069449;28;19977;-88
2021/09/03 09:43:29;;;;;;;;;;;16.70;99.90;;;;;;5066094;28;19936;-88
2021/09/03 09:46:10;;;;;;;;;;;16.70;99.90;;;;;;5069449;28;20383;-88
2021/09/03 09:48:52;;;;;;;;;;;16.70;99.90;;;;;;5073921;28;19924;-88
2021/09/03 09:51:22;;;;;;;;;;;16.70;99.90;;;;;;5083279;28;19924;-89
2021/09/03 09:53:55;;;;;;;;;;;16.80;99.90;;;;;;5085121;28;19932;-89
2021/09/03 09:56:22;;;;;;;;;;;16.80;99.90;;;;;;5093109;28;19930;-89
2021/09/03 09:58:49;;;;;;;;;;;16.80;99.90;;;;;;5072758;28;20402;-89
2021/09/03 10:01:15;;;;;;;;;;;16.80;99.90;;;;;;5080744;28;19958;-88
2021/09/03 10:03:41;;;;;;;;;;;16.80;99.90;;;;;;5093071;28;19919;-89
2021/09/03 10:06:06;;;;;;;;;;;16.80;99.90;;;;;;5071489;28;19927;-89
2021/09/03 10:08:32;;;;;;;;;;;16.90;99.90;;;;;;5093990;28;20014;-88
2021/09/03 10:10:58;;;;;;;;;;;16.90;99.90;;;;;;5060005;28;20298;-89
2021/09/03 10:13:23;;;;;;;;;;;16.90;99.90;;;;;;5060775;28;19927;-88
2021/09/03 10:15:49;;;;;;;;;;;16.90;99.90;;;;;;5112451;27;19919;-89
2021/09/03 10:18:16;;;;;;;;;;;16.90;99.90;;;;;;5063255;27;19920;-89
2021/09/03 10:20:42;;;;;;;;;;;16.90;99.90;;;;;;5062446;28;19921;-89
2021/09/03 10:23:07;;;;;;;;;;;16.90;99.90;;;;;;5076788;27;19923;-88
2021/09/03 10:25:50;;;;;;;;;;;16.90;99.90;;;;;;5065681;28;20008;-90
2021/09/03 10:28:24;;;;;;;;;;;17.00;99.90;;;;;;5094282;28;19920;-89
2021/09/03 10:31:19;;;;;;;;;;;17.00;99.90;;;;;;5058901;28;19927;-89
2021/09/03 10:33:46;;;;;;;;;;;17.10;99.90;;;;;;5061619;28;19928;-89
2021/09/03 10:36:11;;;;;;;;;;;17.10;99.90;;;;;;5058034;28;19920;-90
2021/09/03 10:38:41;;;;;;;;;;;17.10;99.90;;;;;;5042061;28;19927;-90
2021/09/03 10:41:06;;;;;;;;;;;17.10;99.90;;;;;;5059137;28;19920;-89
2021/09/03 10:43:39;;;;;;;;;;;17.10;99.90;;;;;;5058002;28;19942;-90
2021/09/03 10:46:06;;;;;;;;;;;17.10;99.90;;;;;;5058717;28;19920;-89
2021/09/03 10:48:31;;;;;;;;;;;17.10;99.90;;;;;;5075230;28;19931;-89
2021/09/03 10:50:59;;;;;;;;;;;17.10;99.90;;;;;;5075894;28;20010;-90
2021/09/03 10:53:26;;;;;;;;;;;17.10;99.90;;;;;;5077053;28;19931;-89
2021/09/03 10:55:57;;;;;;;;;;;17.10;99.90;;;;;;5095741;28;19926;-90
2021/09/03 10:58:32;;;;;;;;;;;17.20;99.90;;;;;;5095439;28;19920;-90
2021/09/03 11:01:16;;;;;;;;;;;17.20;99.90;;;;;;5059606;28;19942;-89
2021/09/03 11:03:43;;;;;;;;;;;17.30;99.90;;;;;;5057956;28;19963;-89
2021/09/03 11:06:12;;;;;;;;;;;17.30;99.90;;;;;;5058352;28;20319;-89
2021/09/03 11:08:42;;;;;;;;;;;17.30;99.90;;;;;;5057849;28;20520;-90
2021/09/03 11:11:20;;;;;;;;;;;17.40;99.90;;;;;;5074927;28;19920;-89
2021/09/03 11:13:49;;;;;;;;;;;17.40;99.90;;;;;;5057795;28;19928;-88
2021/09/03 11:16:35;;;;;;;;;;;17.50;99.90;;;;;;5063846;28;20286;-90
2021/09/03 11:19:01;;;;;;;;;;;17.50;99.90;;;;;;5078374;28;19949;-90
2021/09/03 11:21:43;;;;;;;;;;;17.50;99.90;;;;;;5078213;28;19920;-90
2021/09/03 11:24:09;;;;;;;;;;;17.50;99.90;;;;;;5077662;28;19923;-89
2021/09/03 11:26:36;;;;;;;;;;;17.60;99.90;;;;;;5078009;28;20256;-90
2021/09/03 11:29:03;;;;;;;;;;;17.60;99.90;;;;;;5078003;28;19931;-89
2021/09/03 11:31:30;;;;;;;;;;;17.60;99.90;;;;;;5078664;28;19923;-89
2021/09/03 11:33:56;;;;;;;;;;;17.60;99.90;;;;;;5078666;28;20288;-90
2021/09/03 11:36:21;;;;;;;;;;;17.60;99.90;;;;;;5060737;28;19923;-89
2021/09/03 11:38:56;;;;;;;;;;;17.60;99.90;;;;;;5091209;28;19920;-90
2021/09/03 11:41:22;;;;;;;;;;;17.70;99.90;;;;;;5073814;28;20019;-90
2021/09/03 11:43:49;;;;;;;;;;;17.70;99.90;;;;;;5073735;28;19924;-90
2021/09/03 11:46:19;;;;;;;;;;;17.70;99.90;;;;;;5073439;28;20318;-90
2021/09/03 11:48:45;;;;;;;;;;;17.80;99.90;;;;;;5073731;28;19920;-90
2021/09/03 11:51:26;;;;;;;;;;;17.80;99.90;;;;;;5076830;28;19923;-90
2021/09/03 11:53:59;;;;;;;;;;;17.80;99.90;;;;;;5061059;28;19956;-90
2021/09/03 11:56:25;;;;;;;;;;;17.90;99.90;;;;;;5076289;28;20328;-90
2021/09/03 11:58:50;;;;;;;;;;;17.90;99.90;;;;;;5093098;28;20345;-89
2021/09/03 12:01:19;;;;;;;;;;;17.90;99.90;;;;;;5076885;28;19920;-90
2021/09/03 12:03:47;;;;;;;;;;;18.00;99.90;;;;;;5076945;28;19928;-90
2021/09/03 12:06:15;;;;;;;;;;;17.90;99.90;;;;;;5076089;28;19927;-90
2021/09/03 12:08:41;;;;;;;;;;;18.00;99.90;;;;;;5093227;28;19993;-91
2021/09/03 12:11:10;;;;;;;;;;;18.00;99.90;;;;;;5077131;28;20019;-90
2021/09/03 12:13:37;;;;;;;;;;;18.00;99.90;;;;;;5093813;28;19935;-90
2021/09/03 12:16:02;;;;;;;;;;;18.00;99.90;;;;;;5093063;28;19978;-90
2021/09/03 12:18:29;;;;;;;;;;;18.10;99.90;;;;;;5076108;28;19978;-91
2021/09/03 12:20:56;;;;;;;;;;;18.10;99.90;;;;;;5076488;28;19993;-89
2021/09/03 12:23:22;;;;;;;;;;;18.10;99.90;;;;;;5076345;28;19919;-90
2021/09/03 12:25:48;;;;;;;;;;;18.20;99.90;;;;;;5076121;28;20393;-90
2021/09/03 12:28:20;;;;;;;;;;;18.20;99.90;;;;;;5075572;28;20340;-91
2021/09/03 12:30:51;;;;;;;;;;;18.20;99.90;;;;;;5075903;28;19924;-90
2021/09/03 12:33:20;;;;;;;;;;;18.10;99.90;;;;;;5076470;28;19931;-90
2021/09/03 12:35:46;;;;;;;;;;;18.20;99.90;;;;;;5059878;28;19920;-90
2021/09/03 12:38:11;;;;;;;;;;;18.20;99.90;;;;;;5092606;28;19961;-91
2021/09/03 12:40:37;;;;;;;;;;;18.30;99.90;;;;;;5091988;28;19931;-90
2021/09/03 12:43:02;;;;;;;;;;;18.30;99.90;;;;;;5075927;28;19924;-90
2021/09/03 12:45:40;;;;;;;;;;;18.50;99.90;;;;;;5076427;28;20386;-90
2021/09/03 12:48:06;;;;;;;;;;;18.50;99.90;;;;;;5075935;28;19959;-90
2021/09/03 12:50:32;;;;;;;;;;;18.60;99.90;;;;;;5058423;28;20396;-91
2021/09/03 12:52:58;;;;;;;;;;;18.60;99.90;;;;;;5076122;28;19924;-90
2021/09/03 12:55:23;;;;;;;;;;;18.70;99.90;;;;;;5059103;28;20288;-90
2021/09/03 12:57:49;;;;;;;;;;;18.70;99.90;;;;;;5059332;28;20000;-90
2021/09/03 13:00:15;;;;;;;;;;;18.70;99.90;;;;;;5057807;28;19943;-90
2021/09/03 13:02:40;;;;;;;;;;;18.70;99.90;;;;;;5092689;28;19927;-90
2021/09/03 13:05:08;;;;;;;;;;;18.70;99.90;;;;;;5092893;28;19928;-90
2021/09/03 13:07:34;;;;;;;;;;;18.60;99.90;;;;;;5075176;28;19963;-89
2021/09/03 13:09:59;;;;;;;;;;;18.50;99.90;;;;;;5074126;28;20434;-90
2021/09/03 13:12:25;;;;;;;;;;;18.50;99.90;;;;;;5075511;28;19933;-89
2021/09/03 13:14:51;;;;;;;;;;;18.50;99.90;;;;;;5074970;28;19949;-89
2021/09/03 13:17:17;;;;;;;;;;;18.50;99.90;;;;;;5074675;28;19927;-89
2021/09/03 13:19:43;;;;;;;;;;;18.60;99.90;;;;;;5091173;28;19924;-89
2021/09/03 13:22:08;;;;;;;;;;;18.70;99.90;;;;;;5057924;28;19930;-89
2021/09/03 13:24:34;;;;;;;;;;;18.80;99.90;;;;;;5091311;28;19924;-89
2021/09/03 13:27:00;;;;;;;;;;;18.80;99.90;;;;;;5058667;28;19928;-91
2021/09/03 13:29:25;;;;;;;;;;;18.80;99.90;;;;;;5058915;28;19923;-91
2021/09/03 13:31:57;;;;;;;;;;;18.80;99.90;;;;;;5066818;28;19924;-91
2021/09/03 13:34:24;;;;;;;;;;;18.70;99.90;;;;;;5050520;28;20034;-90
2021/09/03 13:36:50;;;;;;;;;;;18.70;99.90;;;;;;5058107;28;19928;-91
2021/09/03 13:39:15;;;;;;;;;;;18.70;99.90;;;;;;5070899;28;19973;-91
2021/09/03 13:41:41;;;;;;;;;;;18.70;99.90;;;;;;5053263;28;20006;-90
2021/09/03 13:44:07;;;;;;;;;;;18.80;99.90;;;;;;5074086;28;19945;-90
2021/09/03 13:46:32;;;;;;;;;;;18.80;99.90;;;;;;5055934;28;19920;-90
2021/09/03 13:48:58;;;;;;;;;;;18.70;99.90;;;;;;5073404;28;20382;-91
2021/09/03 13:51:24;;;;;;;;;;;18.60;99.90;;;;;;5087277;28;19930;-91
2021/09/03 13:53:50;;;;;;;;;;;18.50;99.90;;;;;;5091002;28;19924;-91
2021/09/03 13:56:16;;;;;;;;;;;18.60;99.90;;;;;;5056657;28;19969;-91
2021/09/03 13:58:42;;;;;;;;;;;18.70;99.90;;;;;;5059140;28;19925;-91
2021/09/03 14:01:08;;;;;;;;;;;18.70;99.90;;;;;;5073981;28;19919;-90
2021/09/03 14:03:33;;;;;;;;;;;18.70;99.90;;;;;;5072692;28;20375;-91
2021/09/03 14:06:06;;;;;;;;;;;18.70;99.90;;;;;;5071932;28;19975;-91
2021/09/03 14:08:32;;;;;;;;;;;18.70;99.90;;;;;;5069741;28;19930;-91
2021/09/03 14:10:58;;;;;;;;;;;18.70;99.90;;;;;;5067250;28;19924;-91
2021/09/03 14:13:23;;;;;;;;;;;18.70;99.90;;;;;;5056230;28;19927;-91